Terminal Aerodrome Forecast
Issued by NWS

Home | Current Version | Previous Version | Text Only | Print | Product List | Glossary On
Versions: 1 2 3 4 5 6 7 8 9 10 11 12
000
FTUS45 KVEF 291100
TAFDAG
TAF
KDAG 291125Z 2912/3012 26010KT P6SM SKC
     FM291600 30011KT P6SM FEW250
     FM300300 25011KT P6SM FEW250=

USA.gov is the U.S. government's official web portal to all federal, state and local government web resources and services.